createdAt,value
2024-04-18T00:00:05.450Z,92125.03
2024-04-18T00:02:38.227Z,92123.03
2024-04-18T00:05:05.127Z,92117.38
2024-04-18T00:07:31.873Z,92117.66
2024-04-18T00:10:14.566Z,92119.88
2024-04-18T00:12:41.623Z,92113.28
2024-04-18T00:15:21.990Z,92121.72
2024-04-18T00:17:54.932Z,92118.66
2024-04-18T00:20:25.107Z,92110.44
2024-04-18T00:22:54.174Z,92112.59
2024-04-18T00:25:28.069Z,92114.94
2024-04-18T00:27:54.900Z,92115.97
2024-04-18T00:30:40.640Z,92119.47
2024-04-18T00:33:07.347Z,92120.56
2024-04-18T00:35:40.492Z,92122.16
2024-04-18T00:38:13.638Z,92113.72
2024-04-18T00:40:43.729Z,92114.28
2024-04-18T00:43:16.867Z,92119.22
2024-04-18T00:45:44.303Z,92107.50
2024-04-18T00:48:21.911Z,92109.88
2024-04-18T00:50:53.278Z,92116.75
2024-04-18T00:53:20.830Z,92107.84
2024-04-18T00:55:51.388Z,92107.50
2024-04-18T00:58:18.024Z,92108.28
2024-04-18T01:00:47.285Z,92108.72
2024-04-18T01:03:32.702Z,92113.34
2024-04-18T01:06:07.750Z,92110.19
2024-04-18T01:08:53.847Z,92103.88
2024-04-18T01:11:33.536Z,92105.47
2024-04-18T01:14:10.340Z,92108.50
2024-04-18T01:16:55.796Z,92107.59
2024-04-18T01:19:22.426Z,92110.19
2024-04-18T01:21:49.292Z,92114.81
2024-04-18T01:24:16.225Z,92112.03
2024-04-18T01:26:42.928Z,92110.00
2024-04-18T01:29:09.571Z,92116.41
2024-04-18T01:31:36.225Z,92115.94
2024-04-18T01:34:02.874Z,92113.03
2024-04-18T01:36:29.650Z,92108.72
2024-04-18T01:39:16.587Z,92101.97
2024-04-18T01:41:43.412Z,92109.06
2024-04-18T01:44:30.183Z,92107.13
2024-04-18T01:47:15.459Z,92105.91
2024-04-18T01:50:02.082Z,92112.56
2024-04-18T01:52:28.722Z,92116.75
2024-04-18T01:55:02.977Z,92117.88
2024-04-18T01:57:36.725Z,92113.38
2024-04-18T02:00:22.007Z,92108.97
2024-04-18T02:02:48.762Z,92111.31
2024-04-18T02:05:35.335Z,92111.22
2024-04-18T02:08:14.007Z,92112.91
2024-04-18T02:10:46.696Z,92120.13
2024-04-18T02:13:36.057Z,92115.97
2024-04-18T02:16:02.880Z,92119.47
2024-04-18T02:18:46.998Z,92118.75
2024-04-18T02:21:13.919Z,92114.38
2024-04-18T02:23:53.188Z,92120.81
2024-04-18T02:26:20.182Z,92120.34
2024-04-18T02:28:46.823Z,92122.81
2024-04-18T02:31:19.605Z,92127.00
2024-04-18T02:33:53.095Z,92122.81
2024-04-18T02:36:20.490Z,92117.66
2024-04-18T02:38:47.142Z,92119.47
2024-04-18T02:41:13.758Z,92108.66
2024-04-18T02:43:51.150Z,92112.91
2024-04-18T02:46:17.789Z,92109.66
2024-04-18T02:49:03.295Z,92114.38
2024-04-18T02:51:29.973Z,92114.03
2024-04-18T02:54:34.735Z,92111.56
2024-04-18T02:57:01.382Z,92116.28
2024-04-18T02:59:28.063Z,92112.56
2024-04-18T03:01:54.648Z,92112.47
2024-04-18T03:04:21.315Z,92112.91
2024-04-18T03:06:49.070Z,92113.72
2024-04-18T03:09:16.554Z,92118.56
2024-04-18T03:11:55.737Z,92117.66
2024-04-18T03:14:41.533Z,92118.78
2024-04-18T03:17:09.089Z,92125.53
2024-04-18T03:19:54.538Z,92126.22
2024-04-18T03:22:27.425Z,92123.53
2024-04-18T03:25:02.701Z,92128.13
2024-04-18T03:27:30.776Z,92123.38
2024-04-18T03:29:58.196Z,92120.34
2024-04-18T03:32:37.538Z,92128.56
2024-04-18T03:35:05.195Z,92125.31
2024-04-18T03:37:32.543Z,92127.00
2024-04-18T03:40:20.859Z,92133.75
2024-04-18T03:43:00.907Z,92140.19
2024-04-18T03:45:28.420Z,92136.59
2024-04-18T03:48:15.065Z,92144.91
2024-04-18T03:50:44.740Z,92141.78
2024-04-18T03:53:21.172Z,92145.94
2024-04-18T03:55:47.829Z,92148.06
2024-04-18T03:58:14.456Z,92141.53
2024-04-18T04:00:50.780Z,92139.94
2024-04-18T04:03:17.614Z,92140.66
2024-04-18T04:05:44.284Z,92146.94
2024-04-18T04:08:10.903Z,92152.03
2024-04-18T04:10:43.666Z,92149.09
2024-04-18T04:13:11.019Z,92150.97
2024-04-18T04:15:47.755Z,92146.72
2024-04-18T04:18:33.237Z,92156.06
2024-04-18T04:21:16.791Z,92156.97
2024-04-18T04:23:44.103Z,92160.94
2024-04-18T04:26:10.696Z,92163.16
2024-04-18T04:28:37.294Z,92167.34
2024-04-18T04:31:04.111Z,92175.47
2024-04-18T04:33:34.456Z,92169.38
2024-04-18T04:36:01.123Z,92170.16
2024-04-18T04:38:27.788Z,92170.47
2024-04-18T04:40:54.442Z,92173.78
2024-04-18T04:43:21.418Z,92186.38
2024-04-18T04:45:48.135Z,92180.84
2024-04-18T04:48:35.726Z,92181.75
2024-04-18T04:51:11.679Z,92192.59
2024-04-18T04:53:38.317Z,92194.63
2024-04-18T04:56:04.935Z,92192.25
2024-04-18T04:58:31.679Z,92202.06
2024-04-18T05:00:58.484Z,92201.50
2024-04-18T05:03:51.695Z,92212.75
2024-04-18T05:06:24.864Z,92199.13
2024-04-18T05:09:10.944Z,92213.22
2024-04-18T05:11:37.882Z,92212.31
2024-04-18T05:14:24.503Z,92213.88
2024-04-18T05:16:51.337Z,92219.53
2024-04-18T05:19:21.009Z,92224.69
2024-04-18T05:21:47.950Z,92218.63
2024-04-18T05:24:32.897Z,92224.50
2024-04-18T05:26:59.485Z,92228.31
2024-04-18T05:29:44.536Z,92233.50
2024-04-18T05:32:11.190Z,92224.03
2024-04-18T05:34:37.785Z,92231.69
2024-04-18T05:37:04.599Z,92242.50
2024-04-18T05:39:31.214Z,92241.38
2024-04-18T05:41:58.076Z,92249.25
2024-04-18T05:44:39.759Z,92254.78
2024-04-18T05:47:07.001Z,92252.50
2024-04-18T05:49:33.820Z,92252.66
2024-04-18T05:52:00.719Z,92262.13
2024-04-18T05:54:31.250Z,92257.72
2024-04-18T05:57:05.459Z,92268.88
2024-04-18T05:59:51.552Z,92269.50
2024-04-18T06:02:18.590Z,92274.84
2024-04-18T06:04:45.336Z,92276.09
2024-04-18T06:07:31.679Z,92272.75
2024-04-18T06:09:58.879Z,92279.06
2024-04-18T06:12:25.810Z,92286.38
2024-04-18T06:14:52.474Z,92283.28
2024-04-18T06:17:19.049Z,92284.44
2024-04-18T06:19:52.198Z,92285.09
2024-04-18T06:22:27.908Z,92290.75
2024-04-18T06:25:14.625Z,92295.47
2024-04-18T06:27:41.371Z,92300.25
2024-04-18T06:30:08.724Z,92301.56
2024-04-18T06:32:35.524Z,92298.22
2024-04-18T06:35:02.183Z,92306.38
2024-04-18T06:37:28.839Z,92305.72
2024-04-18T06:39:55.589Z,92305.25
2024-04-18T06:42:22.265Z,92305.16
2024-04-18T06:44:48.938Z,92315.84
2024-04-18T06:47:15.714Z,92316.66
2024-04-18T06:50:02.340Z,92312.22
2024-04-18T06:52:28.945Z,92317.16
2024-04-18T06:54:55.621Z,92323.81
2024-04-18T06:57:41.105Z,92322.59
2024-04-18T07:00:09.086Z,92320.53
2024-04-18T07:02:35.929Z,92325.72
2024-04-18T07:05:22.247Z,92325.25
2024-04-18T07:07:52.423Z,92322.09
2024-04-18T07:10:31.653Z,92334.94
2024-04-18T07:12:58.558Z,92330.41
2024-04-18T07:15:25.457Z,92339.59
2024-04-18T07:18:10.752Z,92336.56
2024-04-18T07:20:37.389Z,92337.28
2024-04-18T07:23:06.883Z,92340.91
2024-04-18T07:25:33.661Z,92345.34
2024-04-18T07:28:00.407Z,92350.88
2024-04-18T07:30:27.071Z,92345.84
2024-04-18T07:32:53.724Z,92348.44
2024-04-18T07:35:39.046Z,92360.22
2024-04-18T07:38:06.300Z,92362.47
2024-04-18T07:40:32.909Z,92364.19
2024-04-18T07:42:59.522Z,92366.13
2024-04-18T07:45:26.368Z,92368.31
2024-04-18T07:47:53.068Z,92367.75
2024-04-18T07:50:19.735Z,92375.16
2024-04-18T07:52:53.043Z,92373.34
2024-04-18T07:55:27.276Z,92385.31
2024-04-18T07:57:54.191Z,92386.34
2024-04-18T08:00:23.102Z,92388.88
2024-04-18T08:02:52.164Z,92397.34
2024-04-18T08:05:22.191Z,92389.28
2024-04-18T08:07:53.151Z,92399.94
2024-04-18T08:10:24.540Z,92408.53
2024-04-18T08:12:58.229Z,92405.78
2024-04-18T08:18:14.046Z,92421.78
2024-04-18T08:20:41.790Z,92418.47
2024-04-18T08:23:08.593Z,92425.25
2024-04-18T08:25:35.452Z,92436.75
2024-04-18T08:28:02.057Z,92431.31
2024-04-18T08:30:29.185Z,92439.63
2024-04-18T08:32:55.902Z,92441.69
2024-04-18T08:35:22.574Z,92449.56
2024-04-18T08:37:49.460Z,92454.50
2024-04-18T08:40:16.088Z,92449.69
2024-04-18T08:42:42.699Z,92465.53
2024-04-18T08:45:10.016Z,92467.78
2024-04-18T08:47:39.452Z,92472.06
2024-04-18T08:50:06.646Z,92474.06
2024-04-18T08:52:38.451Z,92478.03
2024-04-18T08:55:05.598Z,92487.63
2024-04-18T08:57:38.629Z,92487.19
2024-04-18T09:00:05.877Z,92497.41
2024-04-18T09:02:32.525Z,92494.28
2024-04-18T09:04:59.964Z,92495.00
2024-04-18T09:07:26.560Z,92490.94
2024-04-18T09:10:06.235Z,92495.47
2024-04-18T09:12:33.586Z,92499.94
2024-04-18T09:15:00.285Z,92493.63
2024-04-18T09:17:28.407Z,92497.66
2024-04-18T09:19:55.558Z,92499.09
2024-04-18T09:22:22.362Z,92502.00
2024-04-18T09:24:49.005Z,92508.19
2024-04-18T09:27:16.411Z,92509.41
2024-04-18T09:29:45.219Z,92507.34
2024-04-18T09:32:16.021Z,92510.66
2024-04-18T09:34:45.088Z,92510.09
2024-04-18T09:37:16.101Z,92516.38
2024-04-18T09:39:45.335Z,92522.53
2024-04-18T09:42:38.120Z,92527.44
2024-04-18T09:45:05.502Z,92532.28
2024-04-18T09:47:32.553Z,92534.50
2024-04-18T09:50:00.291Z,92528.47
2024-04-18T09:52:27.973Z,92538.41
2024-04-18T09:54:56.870Z,92539.50
2024-04-18T09:57:24.796Z,92532.06
2024-04-18T09:59:51.731Z,92537.75
2024-04-18T10:02:22.230Z,92533.75
2024-04-18T10:04:50.339Z,92536.63
2024-04-18T10:07:19.659Z,92538.19
2024-04-18T10:09:48.631Z,92539.56
2024-04-18T10:12:15.508Z,92537.69
2024-04-18T10:14:42.698Z,92545.13
2024-04-18T10:17:22.818Z,92541.28
2024-04-18T10:19:52.264Z,92551.56
2024-04-18T10:22:29.417Z,92558.44
2024-04-18T10:25:04.017Z,92555.13
2024-04-18T10:27:30.778Z,92555.91
2024-04-18T10:30:01.262Z,92558.03
2024-04-18T10:32:29.697Z,92557.22
2024-04-18T10:34:56.527Z,92565.66
2024-04-18T10:37:24.091Z,92567.53
2024-04-18T10:39:53.150Z,92565.72
2024-04-18T10:42:21.672Z,92564.84
2024-04-18T10:44:49.132Z,92556.81
2024-04-18T10:47:19.562Z,92564.25
2024-04-18T10:49:46.715Z,92560.34
2024-04-18T10:52:17.823Z,92569.19
2024-04-18T10:54:45.485Z,92569.00
2024-04-18T10:57:12.248Z,92567.06
2024-04-18T10:59:39.531Z,92573.22
2024-04-18T11:02:07.488Z,92573.91
2024-04-18T11:04:34.394Z,92579.03
2024-04-18T11:07:02.133Z,92585.69
2024-04-18T11:09:29.218Z,92590.47
2024-04-18T11:11:56.166Z,92585.94
2024-04-18T11:14:22.872Z,92592.59
2024-04-18T11:17:02.124Z,92585.81
2024-04-18T11:19:30.268Z,92578.66
2024-04-18T11:22:00.826Z,92574.53
2024-04-18T11:24:28.423Z,92580.31
2024-04-18T11:26:55.038Z,92579.78
2024-04-18T11:29:28.797Z,92584.97
2024-04-18T11:32:12.792Z,92588.19
2024-04-18T11:34:44.093Z,92599.41
2024-04-18T11:37:14.819Z,92601.22
2024-04-18T11:39:42.108Z,92600.13
2024-04-18T11:42:09.042Z,92597.34
2024-04-18T11:44:35.774Z,92599.72
2024-04-18T11:47:02.882Z,92598.72
2024-04-18T11:49:29.777Z,92606.13
2024-04-18T11:51:56.424Z,92614.94
2024-04-18T11:54:23.062Z,92616.28
2024-04-18T11:56:49.672Z,92614.16
2024-04-18T11:59:34.847Z,92621.75
2024-04-18T12:02:01.564Z,92625.75
2024-04-18T12:04:28.283Z,92626.16
2024-04-18T12:06:55.455Z,92618.38
2024-04-18T12:09:28.822Z,92613.41
2024-04-18T12:11:59.622Z,92619.72
2024-04-18T12:14:47.544Z,92631.81
2024-04-18T12:17:30.667Z,92635.88
2024-04-18T12:20:16.796Z,92636.59
2024-04-18T12:22:43.414Z,92639.09
2024-04-18T12:25:17.016Z,92640.34
2024-04-18T12:27:44.204Z,92649.13
2024-04-18T12:30:30.823Z,92652.47
2024-04-18T12:33:16.904Z,92652.91
2024-04-18T12:35:43.826Z,92643.84
2024-04-18T12:38:10.512Z,92646.19
2024-04-18T12:40:43.698Z,92647.63
2024-04-18T12:43:10.369Z,92660.34
2024-04-18T12:46:00.632Z,92663.13
2024-04-18T12:48:58.152Z,92660.50
2024-04-18T12:51:25.197Z,92658.66
2024-04-18T12:53:54.690Z,92658.19
2024-04-18T12:56:42.732Z,92640.25
2024-04-18T12:59:21.398Z,92657.59
2024-04-18T13:01:48.135Z,92655.72
2024-04-18T13:04:20.871Z,92657.03
2024-04-18T13:06:47.679Z,92651.88
2024-04-18T13:09:30.452Z,92654.78
2024-04-18T13:12:02.003Z,92663.75
2024-04-18T13:14:48.656Z,92664.34
2024-04-18T13:17:15.433Z,92654.75
2024-04-18T13:19:48.713Z,92647.59
2024-04-18T13:22:15.877Z,92644.75
2024-04-18T13:24:42.605Z,92646.50
2024-04-18T13:27:24.849Z,92651.78
2024-04-18T13:29:55.918Z,92653.97
2024-04-18T13:32:33.271Z,92637.41
2024-04-18T13:34:59.987Z,92642.50
2024-04-18T13:37:26.566Z,92647.44
2024-04-18T13:40:12.419Z,92642.44
2024-04-18T13:42:59.709Z,92644.31
2024-04-18T13:45:34.975Z,92643.44
2024-04-18T13:48:05.330Z,92637.94
2024-04-18T13:50:45.119Z,92622.72
2024-04-18T13:53:12.570Z,92623.97
2024-04-18T13:55:46.379Z,92623.81
2024-04-18T13:58:13.027Z,92628.59
2024-04-18T14:01:00.187Z,92629.00
2024-04-18T14:03:27.365Z,92625.41
2024-04-18T14:06:03.505Z,92626.97
2024-04-18T14:08:37.175Z,92629.47
2024-04-18T14:11:24.109Z,92629.94
2024-04-18T14:14:05.749Z,92639.84
2024-04-18T14:16:51.241Z,92630.63
2024-04-18T14:19:33.392Z,92635.22
2024-04-18T14:22:09.222Z,92639.50
2024-04-18T14:24:36.777Z,92634.13
2024-04-18T14:27:03.750Z,92625.38
2024-04-18T14:29:30.372Z,92622.75
2024-04-18T14:31:59.097Z,92629.56
2024-04-18T14:34:48.334Z,92639.50
2024-04-18T14:37:17.137Z,92643.94
2024-04-18T14:39:43.952Z,92642.81
2024-04-18T14:42:10.639Z,92655.66
2024-04-18T14:44:37.273Z,92667.41
2024-04-18T14:47:13.919Z,92672.31
2024-04-18T14:50:00.272Z,92678.72
2024-04-18T14:52:32.924Z,92684.19
2024-04-18T14:54:59.564Z,92687.41
2024-04-18T14:57:32.049Z,92686.59
2024-04-18T15:00:16.944Z,92687.59
2024-04-18T15:02:43.651Z,92703.56
2024-04-18T15:05:30.927Z,92709.09
2024-04-18T15:08:00.866Z,92705.03
2024-04-18T15:10:46.367Z,92702.38
2024-04-18T15:13:13.165Z,92699.69
2024-04-18T15:15:42.402Z,92699.28
2024-04-18T15:18:09.171Z,92698.75
2024-04-18T15:20:35.937Z,92687.75
2024-04-18T15:23:09.274Z,92688.44
2024-04-18T15:25:35.956Z,92683.06
2024-04-18T15:28:02.985Z,92684.59
2024-04-18T15:30:29.716Z,92694.63
2024-04-18T15:33:12.679Z,92690.59
2024-04-18T15:35:41.901Z,92684.09
2024-04-18T15:38:17.740Z,92695.06
2024-04-18T15:41:03.030Z,92702.53
2024-04-18T15:43:35.386Z,92708.28
2024-04-18T15:46:04.304Z,92703.00
2024-04-18T15:48:31.019Z,92708.88
2024-04-18T15:50:58.154Z,92712.69
2024-04-18T15:53:31.458Z,92718.69
2024-04-18T15:56:08.054Z,92723.50
2024-04-18T15:58:53.921Z,92719.47
2024-04-18T16:01:22.173Z,92726.66
2024-04-18T16:04:09.290Z,92733.69
2024-04-18T16:06:55.137Z,92736.78
2024-04-18T16:09:40.824Z,92740.38
2024-04-18T16:12:19.693Z,92738.63
2024-04-18T16:14:59.879Z,92744.28
2024-04-18T16:17:26.527Z,92747.41
2024-04-18T16:20:13.519Z,92752.41
2024-04-18T16:22:40.364Z,92753.06
2024-04-18T16:25:25.715Z,92749.03
2024-04-18T16:27:52.534Z,92758.31
2024-04-18T16:30:20.771Z,92754.28
2024-04-18T16:32:50.591Z,92754.84
2024-04-18T16:35:17.462Z,92759.47
2024-04-18T16:38:07.344Z,92758.00
2024-04-18T16:40:50.134Z,92761.00
2024-04-18T16:43:30.231Z,92759.94
2024-04-18T16:45:56.922Z,92763.19
2024-04-18T16:48:23.628Z,92773.59
2024-04-18T16:50:50.384Z,92767.63
2024-04-18T16:53:17.053Z,92769.13
2024-04-18T16:55:43.867Z,92780.59
2024-04-18T16:58:17.437Z,92771.81
2024-04-18T17:00:58.443Z,92776.44
2024-04-18T17:03:26.307Z,92777.78
2024-04-18T17:06:03.372Z,92786.63
2024-04-18T17:08:30.360Z,92789.63
2024-04-18T17:10:57.378Z,92785.81
2024-04-18T17:13:42.495Z,92784.22
2024-04-18T17:16:09.752Z,92788.00
2024-04-18T17:18:36.659Z,92785.69
2024-04-18T17:21:03.938Z,92791.81
2024-04-18T17:23:30.715Z,92792.28
2024-04-18T17:25:57.354Z,92795.56
2024-04-18T17:28:25.281Z,92791.81
2024-04-18T17:31:04.906Z,92791.56
2024-04-18T17:33:31.638Z,92792.91
2024-04-18T17:35:58.944Z,92803.88
2024-04-18T17:38:44.953Z,92808.50
2024-04-18T17:41:30.269Z,92815.31
2024-04-18T17:44:16.132Z,92820.50
2024-04-18T17:46:56.427Z,92821.47
2024-04-18T17:49:23.369Z,92819.97
2024-04-18T17:51:51.599Z,92821.75
2024-04-18T17:54:18.662Z,92817.91
2024-04-18T17:56:45.609Z,92831.59
2024-04-18T17:59:15.789Z,92847.47
2024-04-18T18:01:44.111Z,92848.41
2024-04-18T18:04:12.255Z,92856.88
2024-04-18T18:06:39.170Z,92864.84
2024-04-18T18:09:12.410Z,92866.09
2024-04-18T18:11:39.131Z,92866.28
2024-04-18T18:14:06.541Z,92872.13
2024-04-18T18:16:52.007Z,92863.78
2024-04-18T18:19:18.764Z,92866.94
2024-04-18T18:21:57.279Z,92863.34
2024-04-18T18:24:23.948Z,92866.19
2024-04-18T18:26:50.644Z,92874.22
2024-04-18T18:29:18.568Z,92878.47
2024-04-18T18:32:04.580Z,92884.81
2024-04-18T18:34:33.190Z,92895.13
2024-04-18T18:36:59.805Z,92888.78
2024-04-18T18:39:26.863Z,92894.31
2024-04-18T18:41:53.520Z,92897.69
2024-04-18T18:44:21.415Z,92899.91
2024-04-18T18:46:48.059Z,92903.19
2024-04-18T18:49:15.469Z,92906.03
2024-04-18T18:51:44.612Z,92907.53
2024-04-18T18:54:12.069Z,92911.41
2024-04-18T18:56:39.104Z,92911.84
2024-04-18T18:59:24.303Z,92909.31
2024-04-18T19:01:50.924Z,92913.69
2024-04-18T19:04:23.793Z,92921.88
2024-04-18T19:06:52.882Z,92920.72
2024-04-18T19:09:20.140Z,92912.97
2024-04-18T19:11:46.849Z,92926.38
2024-04-18T19:14:13.627Z,92927.84
2024-04-18T19:17:02.946Z,92937.22
2024-04-18T19:19:30.029Z,92938.06
2024-04-18T19:21:56.809Z,92935.31
2024-04-18T19:24:23.541Z,92944.88
2024-04-18T19:27:02.147Z,92948.88
2024-04-18T19:29:39.615Z,92948.91
2024-04-18T19:32:13.638Z,92939.75
2024-04-18T19:34:40.353Z,92948.13
2024-04-18T19:37:06.989Z,92948.13
2024-04-18T19:39:33.727Z,92954.13
2024-04-18T19:42:01.156Z,92957.13
2024-04-18T19:44:28.235Z,92960.94
2024-04-18T19:46:55.145Z,92961.75
2024-04-18T19:49:21.779Z,92961.75
2024-04-18T19:52:01.578Z,92967.94
2024-04-18T19:54:30.636Z,92964.34
2024-04-18T19:56:57.460Z,92971.69
2024-04-18T19:59:24.084Z,92976.88
2024-04-18T20:01:50.719Z,92979.66
2024-04-18T20:04:17.454Z,92973.47
2024-04-18T20:06:44.202Z,92979.28
2024-04-18T20:09:10.981Z,92972.09
2024-04-18T20:11:37.675Z,92972.88
2024-04-18T20:14:04.390Z,92968.09
2024-04-18T20:16:31.026Z,92974.06
2024-04-18T20:19:14.355Z,92966.69
2024-04-18T20:21:43.781Z,92963.28
2024-04-18T20:24:11.965Z,92967.28
2024-04-18T20:26:57.043Z,92965.69
2024-04-18T20:29:43.646Z,92970.47
2024-04-18T20:32:24.644Z,92968.88
2024-04-18T20:34:52.042Z,92966.28
2024-04-18T20:37:19.015Z,92967.28
2024-04-18T20:39:46.394Z,92973.03
2024-04-18T20:42:14.060Z,92973.22
2024-04-18T20:44:58.974Z,92972.03
2024-04-18T20:47:25.642Z,92978.38
2024-04-18T20:49:52.293Z,92981.16
2024-04-18T20:52:18.888Z,92979.94
2024-04-18T20:54:49.975Z,92980.72
2024-04-18T20:57:16.686Z,92975.69
2024-04-18T20:59:43.590Z,92978.13
2024-04-18T21:02:10.403Z,92977.13
2024-04-18T21:04:37.339Z,92981.50
2024-04-18T21:07:04.066Z,92978.47
2024-04-18T21:09:30.863Z,92983.84
2024-04-18T21:11:58.660Z,92985.81
2024-04-18T21:14:25.380Z,92983.59
2024-04-18T21:16:52.057Z,92983.84
2024-04-18T21:19:21.636Z,92989.63
2024-04-18T21:21:49.155Z,92991.81
2024-04-18T21:24:16.869Z,92993.22
2024-04-18T21:26:47.578Z,92991.81
2024-04-18T21:29:14.509Z,92994.63
2024-04-18T21:31:41.199Z,92991.63
2024-04-18T21:34:08.911Z,92982.09
2024-04-18T21:36:38.862Z,92974.94
2024-04-18T21:39:06.117Z,92973.34
2024-04-18T21:41:35.615Z,92966.81
2024-04-18T21:44:02.324Z,92970.78
2024-04-18T21:46:29.220Z,92969.63
2024-04-18T21:48:56.016Z,92966.44
2024-04-18T21:51:22.941Z,92966.03
2024-04-18T21:53:49.664Z,92964.84
2024-04-18T21:56:16.407Z,92961.28
2024-04-18T21:58:43.120Z,92971.22
2024-04-18T22:01:29.804Z,92971.63
2024-04-18T22:03:56.579Z,92968.28
2024-04-18T22:06:23.327Z,92965.66
2024-04-18T22:08:50.057Z,92969.03
2024-04-18T22:11:16.761Z,92970.78
2024-04-18T22:13:43.459Z,92964.22
2024-04-18T22:16:10.141Z,92966.41
2024-04-18T22:18:37.032Z,92976.34
2024-04-18T22:21:04.179Z,92972.31
2024-04-18T22:23:30.861Z,92977.06
2024-04-18T22:25:57.655Z,92975.50
2024-04-18T22:28:24.349Z,92968.13
2024-04-18T22:30:58.245Z,92967.91
2024-04-18T22:33:25.012Z,92965.91
2024-04-18T22:35:55.506Z,92969.69
2024-04-18T22:38:22.377Z,92969.69
2024-04-18T22:40:49.669Z,92966.28
2024-04-18T22:43:16.383Z,92963.31
2024-04-18T22:45:43.266Z,92967.88
2024-04-18T22:48:10.199Z,92973.03
2024-04-18T22:50:37.160Z,92971.47
2024-04-18T22:53:04.038Z,92974.66
2024-04-18T22:55:30.950Z,92965.44
2024-04-18T22:58:01.236Z,92959.88
2024-04-18T23:00:29.473Z,92962.25
2024-04-18T23:02:56.317Z,92959.03
2024-04-18T23:05:38.270Z,92966.41
2024-04-18T23:08:05.325Z,92970.97
2024-04-18T23:10:33.315Z,92968.34
2024-04-18T23:13:00.245Z,92966.13
2024-04-18T23:15:45.329Z,92962.91
2024-04-18T23:18:12.321Z,92963.88
2024-04-18T23:20:39.620Z,92963.84
2024-04-18T23:23:06.376Z,92960.41
2024-04-18T23:25:33.096Z,92960.78
2024-04-18T23:27:59.831Z,92960.34
2024-04-18T23:30:26.582Z,92961.75
2024-04-18T23:32:53.375Z,92959.16
2024-04-18T23:35:20.339Z,92955.13
2024-04-18T23:37:47.033Z,92954.06
2024-04-18T23:40:13.752Z,92951.25
2024-04-18T23:42:40.505Z,92943.47
2024-04-18T23:45:07.431Z,92948.13
2024-04-18T23:47:34.197Z,92945.78
2024-04-18T23:50:01.680Z,92940.63
2024-04-18T23:52:28.406Z,92946.69
2024-04-18T23:54:55.097Z,92940.94
2024-04-18T23:57:21.919Z,92935.78
2024-04-18T23:59:48.619Z,92943.41
